sensor_id;sensor_type;location;lat;lon;timestamp;P1;durP1;ratioP1;P2;durP2;ratioP2
757;SDS011;363;48.764;9.172;2022-11-02T00:00:52;7.68;;;2.38;;
757;SDS011;363;48.764;9.172;2022-11-02T00:03:18;4.30;;;2.80;;
757;SDS011;363;48.764;9.172;2022-11-02T00:05:44;4.50;;;2.60;;
757;SDS011;363;48.764;9.172;2022-11-02T00:08:09;3.40;;;2.30;;
757;SDS011;363;48.764;9.172;2022-11-02T00:10:35;3.53;;;2.50;;
757;SDS011;363;48.764;9.172;2022-11-02T00:13:01;4.03;;;2.20;;
757;SDS011;363;48.764;9.172;2022-11-02T00:15:27;3.43;;;2.30;;
757;SDS011;363;48.764;9.172;2022-11-02T00:18:15;4.22;;;2.33;;
757;SDS011;363;48.764;9.172;2022-11-02T00:20:40;6.00;;;2.40;;
757;SDS011;363;48.764;9.172;2022-11-02T00:23:07;3.35;;;2.50;;
757;SDS011;363;48.764;9.172;2022-11-02T00:25:39;6.22;;;2.38;;
757;SDS011;363;48.764;9.172;2022-11-02T00:28:08;4.72;;;2.63;;
757;SDS011;363;48.764;9.172;2022-11-02T00:30:34;4.00;;;2.20;;
757;SDS011;363;48.764;9.172;2022-11-02T00:33:01;7.28;;;2.85;;
757;SDS011;363;48.764;9.172;2022-11-02T00:35:27;4.23;;;2.40;;
757;SDS011;363;48.764;9.172;2022-11-02T00:37:52;5.20;;;2.57;;
757;SDS011;363;48.764;9.172;2022-11-02T00:40:18;4.87;;;3.20;;
757;SDS011;363;48.764;9.172;2022-11-02T00:42:44;3.53;;;2.50;;
757;SDS011;363;48.764;9.172;2022-11-02T00:45:09;4.70;;;2.40;;
757;SDS011;363;48.764;9.172;2022-11-02T00:47:35;4.10;;;2.40;;
757;SDS011;363;48.764;9.172;2022-11-02T00:50:01;4.93;;;2.22;;
757;SDS011;363;48.764;9.172;2022-11-02T00:52:27;3.47;;;2.58;;
757;SDS011;363;48.764;9.172;2022-11-02T00:54:53;2.30;;;2.03;;
757;SDS011;363;48.764;9.172;2022-11-02T00:57:19;5.57;;;2.40;;
757;SDS011;363;48.764;9.172;2022-11-02T00:59:44;4.57;;;2.40;;
757;SDS011;363;48.764;9.172;2022-11-02T01:02:10;3.20;;;2.83;;
757;SDS011;363;48.764;9.172;2022-11-02T01:04:35;2.90;;;2.00;;
757;SDS011;363;48.764;9.172;2022-11-02T01:07:01;3.80;;;2.30;;
757;SDS011;363;48.764;9.172;2022-11-02T01:09:27;3.35;;;2.70;;
757;SDS011;363;48.764;9.172;2022-11-02T01:11:53;4.67;;;2.50;;
757;SDS011;363;48.764;9.172;2022-11-02T01:14:19;4.13;;;2.57;;
757;SDS011;363;48.764;9.172;2022-11-02T01:16:45;5.63;;;2.40;;
757;SDS011;363;48.764;9.172;2022-11-02T01:19:11;4.33;;;2.00;;
757;SDS011;363;48.764;9.172;2022-11-02T01:21:37;4.30;;;2.20;;
757;SDS011;363;48.764;9.172;2022-11-02T01:24:03;3.70;;;2.03;;
757;SDS011;363;48.764;9.172;2022-11-02T01:26:28;3.90;;;2.33;;
757;SDS011;363;48.764;9.172;2022-11-02T01:28:54;5.10;;;2.20;;
757;SDS011;363;48.764;9.172;2022-11-02T01:31:20;5.07;;;2.00;;
757;SDS011;363;48.764;9.172;2022-11-02T01:33:45;3.80;;;2.17;;
757;SDS011;363;48.764;9.172;2022-11-02T01:36:12;3.70;;;2.20;;
757;SDS011;363;48.764;9.172;2022-11-02T01:38:39;2.95;;;2.70;;
757;SDS011;363;48.764;9.172;2022-11-02T01:41:06;2.28;;;1.52;;
757;SDS011;363;48.764;9.172;2022-11-02T01:43:33;3.40;;;2.60;;
757;SDS011;363;48.764;9.172;2022-11-02T01:48:30;2.45;;;2.15;;
757;SDS011;363;48.764;9.172;2022-11-02T01:51:08;2.75;;;1.98;;
757;SDS011;363;48.764;9.172;2022-11-02T01:53:36;4.32;;;2.60;;
757;SDS011;363;48.764;9.172;2022-11-02T01:56:05;2.33;;;1.65;;
757;SDS011;363;48.764;9.172;2022-11-02T01:58:33;4.55;;;2.20;;
757;SDS011;363;48.764;9.172;2022-11-02T02:00:59;4.82;;;2.33;;
757;SDS011;363;48.764;9.172;2022-11-02T02:03:26;5.43;;;2.17;;
757;SDS011;363;48.764;9.172;2022-11-02T02:05:56;3.60;;;2.40;;
757;SDS011;363;48.764;9.172;2022-11-02T02:08:26;3.42;;;1.98;;
757;SDS011;363;48.764;9.172;2022-11-02T02:10:56;3.28;;;2.42;;
757;SDS011;363;48.764;9.172;2022-11-02T02:13:23;2.90;;;1.80;;
757;SDS011;363;48.764;9.172;2022-11-02T02:19:17;7.43;;;2.33;;
757;SDS011;363;48.764;9.172;2022-11-02T02:30:14;3.58;;;2.45;;
757;SDS011;363;48.764;9.172;2022-11-02T02:32:46;2.10;;;1.65;;
757;SDS011;363;48.764;9.172;2022-11-02T02:38:03;3.58;;;2.00;;
757;SDS011;363;48.764;9.172;2022-11-02T02:40:34;3.78;;;2.00;;
757;SDS011;363;48.764;9.172;2022-11-02T02:45:38;3.45;;;1.95;;
757;SDS011;363;48.764;9.172;2022-11-02T02:48:18;3.25;;;2.40;;
757;SDS011;363;48.764;9.172;2022-11-02T02:50:49;2.97;;;2.67;;
757;SDS011;363;48.764;9.172;2022-11-02T02:53:20;2.20;;;2.00;;
757;SDS011;363;48.764;9.172;2022-11-02T02:55:51;3.35;;;2.80;;
757;SDS011;363;48.764;9.172;2022-11-02T02:58:18;2.15;;;1.92;;
757;SDS011;363;48.764;9.172;2022-11-02T03:00:48;4.28;;;2.70;;
757;SDS011;363;48.764;9.172;2022-11-02T03:03:19;6.07;;;2.40;;
757;SDS011;363;48.764;9.172;2022-11-02T03:06:22;3.38;;;2.58;;
757;SDS011;363;48.764;9.172;2022-11-02T03:08:48;2.78;;;2.50;;
757;SDS011;363;48.764;9.172;2022-11-02T03:11:25;3.92;;;2.42;;
757;SDS011;363;48.764;9.172;2022-11-02T03:22:27;4.07;;;2.58;;
757;SDS011;363;48.764;9.172;2022-11-02T03:25:01;2.88;;;2.40;;
757;SDS011;363;48.764;9.172;2022-11-02T03:30:16;2.88;;;2.10;;
757;SDS011;363;48.764;9.172;2022-11-02T03:32:54;2.65;;;2.28;;
757;SDS011;363;48.764;9.172;2022-11-02T03:35:40;6.35;;;2.05;;
757;SDS011;363;48.764;9.172;2022-11-02T03:38:31;2.00;;;1.90;;
757;SDS011;363;48.764;9.172;2022-11-02T03:41:00;5.32;;;2.25;;
757;SDS011;363;48.764;9.172;2022-11-02T03:43:28;5.63;;;2.75;;
757;SDS011;363;48.764;9.172;2022-11-02T03:45:58;3.00;;;2.40;;
757;SDS011;363;48.764;9.172;2022-11-02T03:48:29;3.55;;;2.10;;
757;SDS011;363;48.764;9.172;2022-11-02T03:51:08;2.58;;;2.25;;
757;SDS011;363;48.764;9.172;2022-11-02T03:56:09;2.40;;;2.00;;
757;SDS011;363;48.764;9.172;2022-11-02T03:58:40;4.35;;;2.35;;
757;SDS011;363;48.764;9.172;2022-11-02T04:01:06;4.20;;;2.53;;
757;SDS011;363;48.764;9.172;2022-11-02T04:03:32;6.10;;;2.35;;
757;SDS011;363;48.764;9.172;2022-11-02T04:06:02;2.97;;;1.95;;
757;SDS011;363;48.764;9.172;2022-11-02T04:08:30;3.73;;;2.37;;
757;SDS011;363;48.764;9.172;2022-11-02T04:10:59;3.65;;;2.78;;
757;SDS011;363;48.764;9.172;2022-11-02T04:13:43;2.75;;;1.92;;
757;SDS011;363;48.764;9.172;2022-11-02T04:16:27;6.45;;;2.90;;
757;SDS011;363;48.764;9.172;2022-11-02T04:18:53;3.27;;;2.47;;
757;SDS011;363;48.764;9.172;2022-11-02T04:21:37;3.58;;;2.80;;
757;SDS011;363;48.764;9.172;2022-11-02T04:24:03;3.20;;;2.10;;
757;SDS011;363;48.764;9.172;2022-11-02T04:26:48;3.50;;;2.13;;
757;SDS011;363;48.764;9.172;2022-11-02T04:29:13;3.43;;;2.77;;
757;SDS011;363;48.764;9.172;2022-11-02T04:31:39;3.90;;;3.40;;
757;SDS011;363;48.764;9.172;2022-11-02T04:34:04;2.70;;;2.40;;
757;SDS011;363;48.764;9.172;2022-11-02T04:36:30;4.33;;;2.30;;
757;SDS011;363;48.764;9.172;2022-11-02T04:38:56;3.15;;;2.33;;
757;SDS011;363;48.764;9.172;2022-11-02T04:41:22;3.07;;;2.33;;
757;SDS011;363;48.764;9.172;2022-11-02T04:44:07;5.13;;;2.30;;
757;SDS011;363;48.764;9.172;2022-11-02T04:46:38;7.80;;;2.83;;
757;SDS011;363;48.764;9.172;2022-11-02T04:49:05;4.32;;;2.40;;
757;SDS011;363;48.764;9.172;2022-11-02T04:51:31;4.32;;;2.33;;
757;SDS011;363;48.764;9.172;2022-11-02T04:53:57;4.93;;;3.08;;
757;SDS011;363;48.764;9.172;2022-11-02T04:56:24;3.65;;;2.17;;
757;SDS011;363;48.764;9.172;2022-11-02T04:58:51;3.88;;;2.70;;
757;SDS011;363;48.764;9.172;2022-11-02T05:01:19;2.10;;;1.90;;
757;SDS011;363;48.764;9.172;2022-11-02T05:03:46;8.07;;;2.60;;
757;SDS011;363;48.764;9.172;2022-11-02T05:06:12;2.88;;;1.83;;
757;SDS011;363;48.764;9.172;2022-11-02T05:08:39;3.45;;;2.60;;
757;SDS011;363;48.764;9.172;2022-11-02T05:11:05;3.73;;;2.53;;
757;SDS011;363;48.764;9.172;2022-11-02T05:13:30;2.77;;;2.30;;
757;SDS011;363;48.764;9.172;2022-11-02T05:15:57;4.83;;;2.90;;
757;SDS011;363;48.764;9.172;2022-11-02T05:18:23;2.90;;;2.00;;
757;SDS011;363;48.764;9.172;2022-11-02T05:20:53;2.50;;;2.15;;
757;SDS011;363;48.764;9.172;2022-11-02T05:23:21;3.25;;;2.85;;
757;SDS011;363;48.764;9.172;2022-11-02T05:25:51;3.88;;;2.10;;
757;SDS011;363;48.764;9.172;2022-11-02T05:28:20;2.40;;;2.15;;
757;SDS011;363;48.764;9.172;2022-11-02T05:30:47;3.95;;;2.38;;
757;SDS011;363;48.764;9.172;2022-11-02T05:33:12;3.33;;;2.37;;
757;SDS011;363;48.764;9.172;2022-11-02T05:35:38;6.00;;;2.80;;
757;SDS011;363;48.764;9.172;2022-11-02T05:38:04;3.83;;;2.37;;
757;SDS011;363;48.764;9.172;2022-11-02T05:40:30;7.37;;;3.07;;
757;SDS011;363;48.764;9.172;2022-11-02T05:42:59;4.87;;;2.63;;
757;SDS011;363;48.764;9.172;2022-11-02T05:45:25;2.92;;;2.22;;
757;SDS011;363;48.764;9.172;2022-11-02T05:47:50;3.80;;;2.70;;
757;SDS011;363;48.764;9.172;2022-11-02T05:50:16;3.93;;;2.63;;
757;SDS011;363;48.764;9.172;2022-11-02T05:52:42;2.90;;;2.30;;
757;SDS011;363;48.764;9.172;2022-11-02T05:55:07;6.50;;;2.33;;
757;SDS011;363;48.764;9.172;2022-11-02T05:57:33;3.57;;;2.50;;
757;SDS011;363;48.764;9.172;2022-11-02T05:59:59;3.10;;;2.40;;
757;SDS011;363;48.764;9.172;2022-11-02T06:02:25;4.97;;;3.17;;
757;SDS011;363;48.764;9.172;2022-11-02T06:04:50;4.63;;;2.50;;
757;SDS011;363;48.764;9.172;2022-11-02T06:07:16;3.90;;;2.30;;
757;SDS011;363;48.764;9.172;2022-11-02T06:09:42;5.13;;;2.93;;
757;SDS011;363;48.764;9.172;2022-11-02T06:12:07;4.53;;;2.77;;
757;SDS011;363;48.764;9.172;2022-11-02T06:14:33;5.00;;;2.37;;
757;SDS011;363;48.764;9.172;2022-11-02T06:16:58;3.53;;;2.60;;
757;SDS011;363;48.764;9.172;2022-11-02T06:19:24;5.17;;;2.77;;
757;SDS011;363;48.764;9.172;2022-11-02T06:21:49;8.37;;;2.80;;
757;SDS011;363;48.764;9.172;2022-11-02T06:24:15;2.60;;;2.23;;
757;SDS011;363;48.764;9.172;2022-11-02T06:26:41;3.70;;;2.60;;
757;SDS011;363;48.764;9.172;2022-11-02T06:29:07;4.90;;;2.80;;
757;SDS011;363;48.764;9.172;2022-11-02T06:31:32;6.03;;;2.70;;
757;SDS011;363;48.764;9.172;2022-11-02T06:33:58;3.97;;;2.37;;
757;SDS011;363;48.764;9.172;2022-11-02T06:36:23;6.30;;;2.67;;
757;SDS011;363;48.764;9.172;2022-11-02T06:38:50;5.80;;;2.75;;
757;SDS011;363;48.764;9.172;2022-11-02T06:41:15;5.00;;;3.07;;
757;SDS011;363;48.764;9.172;2022-11-02T06:43:41;4.10;;;2.60;;
757;SDS011;363;48.764;9.172;2022-11-02T06:46:06;3.07;;;2.77;;
757;SDS011;363;48.764;9.172;2022-11-02T06:48:37;9.47;;;4.37;;
757;SDS011;363;48.764;9.172;2022-11-02T06:51:10;3.70;;;2.90;;
757;SDS011;363;48.764;9.172;2022-11-02T06:53:36;6.30;;;3.97;;
757;SDS011;363;48.764;9.172;2022-11-02T06:56:02;5.87;;;3.90;;
757;SDS011;363;48.764;9.172;2022-11-02T06:58:27;3.87;;;2.30;;
757;SDS011;363;48.764;9.172;2022-11-02T07:00:57;4.43;;;3.05;;
757;SDS011;363;48.764;9.172;2022-11-02T07:03:25;3.78;;;2.40;;
757;SDS011;363;48.764;9.172;2022-11-02T07:05:51;5.75;;;3.72;;
757;SDS011;363;48.764;9.172;2022-11-02T07:08:18;2.55;;;2.08;;
757;SDS011;363;48.764;9.172;2022-11-02T07:10:44;9.43;;;4.50;;
757;SDS011;363;48.764;9.172;2022-11-02T07:13:10;3.30;;;2.17;;
757;SDS011;363;48.764;9.172;2022-11-02T07:15:35;2.30;;;2.10;;
757;SDS011;363;48.764;9.172;2022-11-02T07:18:01;6.47;;;2.40;;
757;SDS011;363;48.764;9.172;2022-11-02T07:20:27;6.43;;;2.70;;
757;SDS011;363;48.764;9.172;2022-11-02T07:22:54;6.20;;;2.53;;
757;SDS011;363;48.764;9.172;2022-11-02T07:25:22;4.93;;;3.08;;
757;SDS011;363;48.764;9.172;2022-11-02T07:27:48;9.13;;;2.85;;
757;SDS011;363;48.764;9.172;2022-11-02T07:30:14;6.73;;;3.23;;
757;SDS011;363;48.764;9.172;2022-11-02T07:32:40;6.20;;;3.10;;
757;SDS011;363;48.764;9.172;2022-11-02T07:35:07;6.53;;;3.30;;
757;SDS011;363;48.764;9.172;2022-11-02T07:37:35;6.00;;;2.97;;
757;SDS011;363;48.764;9.172;2022-11-02T07:40:01;5.63;;;2.50;;
757;SDS011;363;48.764;9.172;2022-11-02T07:42:27;6.00;;;2.72;;
757;SDS011;363;48.764;9.172;2022-11-02T07:44:53;5.70;;;3.93;;
757;SDS011;363;48.764;9.172;2022-11-02T07:47:18;7.07;;;3.00;;
757;SDS011;363;48.764;9.172;2022-11-02T07:49:44;7.73;;;3.70;;
757;SDS011;363;48.764;9.172;2022-11-02T07:52:09;11.03;;;5.93;;
757;SDS011;363;48.764;9.172;2022-11-02T07:54:35;9.87;;;3.33;;
757;SDS011;363;48.764;9.172;2022-11-02T07:57:00;5.90;;;3.07;;
757;SDS011;363;48.764;9.172;2022-11-02T07:59:26;6.60;;;3.73;;
757;SDS011;363;48.764;9.172;2022-11-02T08:01:51;8.40;;;2.60;;
757;SDS011;363;48.764;9.172;2022-11-02T08:04:17;12.20;;;3.67;;
757;SDS011;363;48.764;9.172;2022-11-02T08:06:43;8.87;;;3.03;;
757;SDS011;363;48.764;9.172;2022-11-02T08:09:08;1.83;;;1.73;;
757;SDS011;363;48.764;9.172;2022-11-02T08:11:34;3.83;;;2.13;;
757;SDS011;363;48.764;9.172;2022-11-02T08:14:00;4.93;;;2.30;;
757;SDS011;363;48.764;9.172;2022-11-02T08:16:26;5.90;;;1.83;;
757;SDS011;363;48.764;9.172;2022-11-02T08:18:53;5.95;;;2.47;;
757;SDS011;363;48.764;9.172;2022-11-02T08:21:19;7.03;;;2.23;;
757;SDS011;363;48.764;9.172;2022-11-02T08:23:44;5.50;;;2.00;;
757;SDS011;363;48.764;9.172;2022-11-02T08:26:10;3.87;;;1.70;;
757;SDS011;363;48.764;9.172;2022-11-02T08:28:36;5.97;;;2.53;;
757;SDS011;363;48.764;9.172;2022-11-02T08:31:04;3.78;;;3.00;;
757;SDS011;363;48.764;9.172;2022-11-02T08:33:31;6.47;;;3.10;;
757;SDS011;363;48.764;9.172;2022-11-02T08:36:00;12.40;;;2.17;;
757;SDS011;363;48.764;9.172;2022-11-02T08:38:28;9.60;;;3.42;;
757;SDS011;363;48.764;9.172;2022-11-02T08:40:54;6.72;;;1.95;;
757;SDS011;363;48.764;9.172;2022-11-02T08:43:20;3.17;;;1.95;;
757;SDS011;363;48.764;9.172;2022-11-02T08:45:46;4.27;;;1.80;;
757;SDS011;363;48.764;9.172;2022-11-02T08:48:12;5.20;;;2.60;;
757;SDS011;363;48.764;9.172;2022-11-02T08:50:38;3.47;;;2.03;;
757;SDS011;363;48.764;9.172;2022-11-02T08:53:04;10.90;;;2.43;;
757;SDS011;363;48.764;9.172;2022-11-02T08:55:30;5.97;;;2.22;;
757;SDS011;363;48.764;9.172;2022-11-02T08:57:57;3.43;;;1.90;;
757;SDS011;363;48.764;9.172;2022-11-02T09:00:27;7.10;;;2.10;;
757;SDS011;363;48.764;9.172;2022-11-02T09:05:30;4.18;;;2.13;;
757;SDS011;363;48.764;9.172;2022-11-02T09:07:58;5.80;;;3.30;;
757;SDS011;363;48.764;9.172;2022-11-02T09:10:26;4.40;;;1.85;;
757;SDS011;363;48.764;9.172;2022-11-02T09:12:52;2.13;;;1.80;;
757;SDS011;363;48.764;9.172;2022-11-02T09:15:18;4.40;;;1.90;;
757;SDS011;363;48.764;9.172;2022-11-02T09:17:47;3.20;;;1.77;;
757;SDS011;363;48.764;9.172;2022-11-02T09:20:14;1.90;;;1.70;;
757;SDS011;363;48.764;9.172;2022-11-02T09:22:41;3.40;;;1.50;;
757;SDS011;363;48.764;9.172;2022-11-02T09:25:07;3.75;;;1.30;;
757;SDS011;363;48.764;9.172;2022-11-02T09:27:33;7.77;;;1.63;;
757;SDS011;363;48.764;9.172;2022-11-02T09:29:58;4.10;;;1.73;;
757;SDS011;363;48.764;9.172;2022-11-02T09:32:24;2.50;;;2.20;;
757;SDS011;363;48.764;9.172;2022-11-02T09:34:49;3.00;;;1.80;;
757;SDS011;363;48.764;9.172;2022-11-02T09:37:16;2.33;;;1.20;;
757;SDS011;363;48.764;9.172;2022-11-02T09:39:42;3.73;;;1.57;;
757;SDS011;363;48.764;9.172;2022-11-02T09:42:12;2.70;;;1.33;;
757;SDS011;363;48.764;9.172;2022-11-02T09:44:55;3.08;;;1.45;;
757;SDS011;363;48.764;9.172;2022-11-02T09:47:25;2.90;;;1.55;;
757;SDS011;363;48.764;9.172;2022-11-02T09:49:53;4.18;;;1.60;;
757;SDS011;363;48.764;9.172;2022-11-02T09:52:33;3.38;;;1.45;;
757;SDS011;363;48.764;9.172;2022-11-02T09:55:02;3.30;;;1.85;;
757;SDS011;363;48.764;9.172;2022-11-02T09:57:34;3.58;;;1.40;;
757;SDS011;363;48.764;9.172;2022-11-02T10:00:01;5.53;;;3.63;;
757;SDS011;363;48.764;9.172;2022-11-02T10:02:29;3.10;;;1.92;;
757;SDS011;363;48.764;9.172;2022-11-02T10:05:35;4.10;;;1.88;;
757;SDS011;363;48.764;9.172;2022-11-02T10:13:50;4.88;;;2.17;;
757;SDS011;363;48.764;9.172;2022-11-02T10:18:58;5.38;;;2.38;;
757;SDS011;363;48.764;9.172;2022-11-02T10:21:31;3.70;;;1.63;;
757;SDS011;363;48.764;9.172;2022-11-02T10:23:59;5.65;;;1.95;;
757;SDS011;363;48.764;9.172;2022-11-02T10:26:42;4.30;;;1.42;;
757;SDS011;363;48.764;9.172;2022-11-02T10:31:51;4.82;;;2.03;;
757;SDS011;363;48.764;9.172;2022-11-02T10:39:46;2.72;;;2.00;;
757;SDS011;363;48.764;9.172;2022-11-02T10:42:41;3.95;;;1.75;;
757;SDS011;363;48.764;9.172;2022-11-02T10:51:10;3.08;;;1.40;;
757;SDS011;363;48.764;9.172;2022-11-02T10:53:47;3.53;;;2.15;;
757;SDS011;363;48.764;9.172;2022-11-02T10:56:18;3.85;;;2.15;;
757;SDS011;363;48.764;9.172;2022-11-02T11:01:26;2.88;;;1.60;;
757;SDS011;363;48.764;9.172;2022-11-02T11:03:59;9.20;;;7.70;;
757;SDS011;363;48.764;9.172;2022-11-02T11:06:26;4.97;;;3.00;;
757;SDS011;363;48.764;9.172;2022-11-02T11:09:28;3.55;;;1.95;;
757;SDS011;363;48.764;9.172;2022-11-02T11:11:57;5.75;;;2.20;;
757;SDS011;363;48.764;9.172;2022-11-02T11:14:26;6.25;;;2.15;;
757;SDS011;363;48.764;9.172;2022-11-02T11:16:54;3.13;;;1.55;;
757;SDS011;363;48.764;9.172;2022-11-02T11:21:58;3.60;;;1.80;;
757;SDS011;363;48.764;9.172;2022-11-02T11:24:28;4.50;;;2.00;;
757;SDS011;363;48.764;9.172;2022-11-02T11:29:44;5.95;;;2.05;;
757;SDS011;363;48.764;9.172;2022-11-02T11:32:16;3.33;;;1.52;;
757;SDS011;363;48.764;9.172;2022-11-02T11:34:56;1.60;;;1.48;;
757;SDS011;363;48.764;9.172;2022-11-02T11:37:24;4.85;;;2.10;;
757;SDS011;363;48.764;9.172;2022-11-02T11:39:52;5.07;;;2.10;;
757;SDS011;363;48.764;9.172;2022-11-02T11:42:40;3.03;;;1.50;;
757;SDS011;363;48.764;9.172;2022-11-02T11:45:13;2.95;;;1.60;;
757;SDS011;363;48.764;9.172;2022-11-02T11:47:45;4.70;;;1.80;;
757;SDS011;363;48.764;9.172;2022-11-02T11:50:17;5.43;;;1.90;;
757;SDS011;363;48.764;9.172;2022-11-02T11:52:43;4.40;;;1.70;;
757;SDS011;363;48.764;9.172;2022-11-02T11:55:25;5.00;;;2.17;;
757;SDS011;363;48.764;9.172;2022-11-02T11:58:05;2.88;;;1.48;;
757;SDS011;363;48.764;9.172;2022-11-02T12:00:37;3.15;;;2.08;;
757;SDS011;363;48.764;9.172;2022-11-02T12:03:07;6.57;;;2.60;;
757;SDS011;363;48.764;9.172;2022-11-02T12:08:27;4.03;;;1.83;;
757;SDS011;363;48.764;9.172;2022-11-02T12:20:01;2.47;;;1.73;;
757;SDS011;363;48.764;9.172;2022-11-02T12:25:29;6.53;;;3.25;;
757;SDS011;363;48.764;9.172;2022-11-02T12:28:19;4.20;;;2.10;;
757;SDS011;363;48.764;9.172;2022-11-02T12:36:27;5.78;;;2.35;;
757;SDS011;363;48.764;9.172;2022-11-02T12:41:52;7.15;;;1.60;;
757;SDS011;363;48.764;9.172;2022-11-02T12:46:49;3.30;;;1.60;;
757;SDS011;363;48.764;9.172;2022-11-02T12:49:35;4.53;;;1.35;;
757;SDS011;363;48.764;9.172;2022-11-02T12:54:45;1.80;;;1.20;;
757;SDS011;363;48.764;9.172;2022-11-02T12:57:18;3.55;;;1.58;;
757;SDS011;363;48.764;9.172;2022-11-02T12:59:48;2.63;;;1.30;;
757;SDS011;363;48.764;9.172;2022-11-02T13:02:22;2.92;;;1.40;;
757;SDS011;363;48.764;9.172;2022-11-02T13:05:02;3.10;;;1.63;;
757;SDS011;363;48.764;9.172;2022-11-02T13:07:37;3.10;;;1.83;;
757;SDS011;363;48.764;9.172;2022-11-02T13:10:35;3.15;;;1.90;;
757;SDS011;363;48.764;9.172;2022-11-02T13:13:09;5.15;;;1.77;;
757;SDS011;363;48.764;9.172;2022-11-02T13:15:40;2.65;;;1.30;;
757;SDS011;363;48.764;9.172;2022-11-02T13:18:10;5.10;;;1.75;;
757;SDS011;363;48.764;9.172;2022-11-02T13:20:46;6.50;;;1.45;;
757;SDS011;363;48.764;9.172;2022-11-02T13:23:27;4.90;;;3.00;;
757;SDS011;363;48.764;9.172;2022-11-02T13:26:05;9.77;;;3.38;;
757;SDS011;363;48.764;9.172;2022-11-02T13:28:53;5.35;;;2.00;;
757;SDS011;363;48.764;9.172;2022-11-02T13:31:34;3.72;;;2.03;;
757;SDS011;363;48.764;9.172;2022-11-02T13:34:04;4.40;;;1.83;;
757;SDS011;363;48.764;9.172;2022-11-02T13:36:36;4.90;;;1.80;;
757;SDS011;363;48.764;9.172;2022-11-02T13:39:08;3.40;;;2.00;;
757;SDS011;363;48.764;9.172;2022-11-02T13:47:22;6.43;;;2.20;;
757;SDS011;363;48.764;9.172;2022-11-02T13:50:09;5.68;;;2.17;;
757;SDS011;363;48.764;9.172;2022-11-02T13:52:39;4.95;;;1.95;;
757;SDS011;363;48.764;9.172;2022-11-02T13:55:14;5.43;;;2.03;;
757;SDS011;363;48.764;9.172;2022-11-02T13:58:01;2.83;;;1.70;;
757;SDS011;363;48.764;9.172;2022-11-02T14:00:42;3.30;;;1.92;;
757;SDS011;363;48.764;9.172;2022-11-02T14:03:26;7.18;;;1.90;;
757;SDS011;363;48.764;9.172;2022-11-02T14:06:11;3.05;;;1.90;;
757;SDS011;363;48.764;9.172;2022-11-02T14:08:39;2.25;;;1.98;;
757;SDS011;363;48.764;9.172;2022-11-02T14:14:06;4.38;;;1.58;;
757;SDS011;363;48.764;9.172;2022-11-02T14:21:42;4.30;;;1.43;;
757;SDS011;363;48.764;9.172;2022-11-02T14:49:01;4.05;;;1.85;;
757;SDS011;363;48.764;9.172;2022-11-02T14:51:32;8.48;;;3.20;;
757;SDS011;363;48.764;9.172;2022-11-02T14:54:12;11.43;;;3.40;;
757;SDS011;363;48.764;9.172;2022-11-02T14:56:47;3.58;;;2.35;;
757;SDS011;363;48.764;9.172;2022-11-02T14:59:17;11.52;;;2.63;;
757;SDS011;363;48.764;9.172;2022-11-02T15:04:21;4.57;;;2.15;;
757;SDS011;363;48.764;9.172;2022-11-02T15:06:50;10.68;;;6.80;;
757;SDS011;363;48.764;9.172;2022-11-02T15:12:33;5.07;;;2.28;;
757;SDS011;363;48.764;9.172;2022-11-02T15:17:51;4.75;;;2.38;;
757;SDS011;363;48.764;9.172;2022-11-02T15:22:53;5.38;;;2.65;;
757;SDS011;363;48.764;9.172;2022-11-02T15:25:39;5.40;;;2.45;;
757;SDS011;363;48.764;9.172;2022-11-02T15:28:08;3.78;;;1.80;;
757;SDS011;363;48.764;9.172;2022-11-02T15:30:39;6.63;;;2.13;;
757;SDS011;363;48.764;9.172;2022-11-02T15:36:07;4.05;;;1.75;;
757;SDS011;363;48.764;9.172;2022-11-02T15:38:40;4.97;;;1.95;;
757;SDS011;363;48.764;9.172;2022-11-02T15:44:09;7.03;;;2.55;;
757;SDS011;363;48.764;9.172;2022-11-02T15:46:58;3.53;;;1.90;;
757;SDS011;363;48.764;9.172;2022-11-02T16:00:38;6.68;;;2.38;;
757;SDS011;363;48.764;9.172;2022-11-02T16:03:04;2.77;;;1.60;;
757;SDS011;363;48.764;9.172;2022-11-02T16:05:33;5.97;;;2.30;;
757;SDS011;363;48.764;9.172;2022-11-02T16:08:19;8.65;;;2.78;;
757;SDS011;363;48.764;9.172;2022-11-02T16:10:49;8.52;;;2.38;;
757;SDS011;363;48.764;9.172;2022-11-02T16:13:26;5.78;;;2.20;;
757;SDS011;363;48.764;9.172;2022-11-02T16:16:00;4.70;;;2.70;;
757;SDS011;363;48.764;9.172;2022-11-02T16:18:38;5.88;;;2.22;;
757;SDS011;363;48.764;9.172;2022-11-02T16:21:05;6.05;;;2.22;;
757;SDS011;363;48.764;9.172;2022-11-02T16:23:33;6.13;;;2.75;;
757;SDS011;363;48.764;9.172;2022-11-02T16:26:04;6.80;;;2.70;;
757;SDS011;363;48.764;9.172;2022-11-02T16:28:35;6.22;;;3.67;;
757;SDS011;363;48.764;9.172;2022-11-02T16:33:38;9.05;;;4.28;;
757;SDS011;363;48.764;9.172;2022-11-02T16:36:08;4.70;;;2.42;;
757;SDS011;363;48.764;9.172;2022-11-02T16:38:38;5.22;;;3.33;;
757;SDS011;363;48.764;9.172;2022-11-02T16:41:09;7.72;;;3.00;;
757;SDS011;363;48.764;9.172;2022-11-02T16:43:38;5.88;;;3.40;;
757;SDS011;363;48.764;9.172;2022-11-02T16:46:08;8.85;;;4.32;;
757;SDS011;363;48.764;9.172;2022-11-02T16:48:33;7.07;;;3.87;;
757;SDS011;363;48.764;9.172;2022-11-02T16:53:37;7.22;;;2.83;;
757;SDS011;363;48.764;9.172;2022-11-02T16:56:12;7.35;;;3.85;;
757;SDS011;363;48.764;9.172;2022-11-02T16:58:44;9.68;;;3.67;;
757;SDS011;363;48.764;9.172;2022-11-02T17:01:17;8.45;;;3.65;;
757;SDS011;363;48.764;9.172;2022-11-02T17:03:45;4.80;;;4.18;;
757;SDS011;363;48.764;9.172;2022-11-02T17:06:11;6.07;;;3.40;;
757;SDS011;363;48.764;9.172;2022-11-02T17:08:37;7.97;;;3.30;;
757;SDS011;363;48.764;9.172;2022-11-02T17:11:06;8.77;;;3.75;;
757;SDS011;363;48.764;9.172;2022-11-02T17:13:37;4.63;;;2.90;;
757;SDS011;363;48.764;9.172;2022-11-02T17:16:10;9.38;;;3.15;;
757;SDS011;363;48.764;9.172;2022-11-02T17:18:36;9.20;;;3.43;;
757;SDS011;363;48.764;9.172;2022-11-02T17:23:37;13.73;;;3.95;;
757;SDS011;363;48.764;9.172;2022-11-02T17:28:49;7.47;;;4.10;;
757;SDS011;363;48.764;9.172;2022-11-02T17:31:35;8.20;;;3.72;;
757;SDS011;363;48.764;9.172;2022-11-02T17:34:09;10.65;;;3.75;;
757;SDS011;363;48.764;9.172;2022-11-02T17:36:40;6.38;;;4.43;;
757;SDS011;363;48.764;9.172;2022-11-02T17:39:09;8.43;;;4.32;;
757;SDS011;363;48.764;9.172;2022-11-02T17:41:38;7.43;;;4.32;;
757;SDS011;363;48.764;9.172;2022-11-02T17:44:22;6.53;;;5.03;;
757;SDS011;363;48.764;9.172;2022-11-02T17:46:48;7.73;;;4.20;;
757;SDS011;363;48.764;9.172;2022-11-02T17:49:13;6.50;;;3.97;;
757;SDS011;363;48.764;9.172;2022-11-02T17:51:40;9.93;;;5.10;;
757;SDS011;363;48.764;9.172;2022-11-02T17:54:07;7.32;;;4.20;;
757;SDS011;363;48.764;9.172;2022-11-02T17:56:36;12.55;;;6.50;;
757;SDS011;363;48.764;9.172;2022-11-02T17:59:01;11.43;;;4.90;;
757;SDS011;363;48.764;9.172;2022-11-02T18:01:27;13.80;;;5.53;;
757;SDS011;363;48.764;9.172;2022-11-02T18:03:52;8.00;;;5.60;;
757;SDS011;363;48.764;9.172;2022-11-02T18:06:18;9.10;;;5.50;;
757;SDS011;363;48.764;9.172;2022-11-02T18:08:43;7.70;;;5.13;;
757;SDS011;363;48.764;9.172;2022-11-02T18:11:28;11.77;;;5.40;;
757;SDS011;363;48.764;9.172;2022-11-02T18:13:53;10.00;;;5.87;;
757;SDS011;363;48.764;9.172;2022-11-02T18:16:19;8.70;;;5.07;;
757;SDS011;363;48.764;9.172;2022-11-02T18:18:44;7.00;;;5.10;;
757;SDS011;363;48.764;9.172;2022-11-02T18:21:10;11.37;;;5.30;;
757;SDS011;363;48.764;9.172;2022-11-02T18:23:36;8.93;;;5.45;;
757;SDS011;363;48.764;9.172;2022-11-02T18:26:03;10.68;;;5.78;;
757;SDS011;363;48.764;9.172;2022-11-02T18:28:29;9.50;;;6.20;;
757;SDS011;363;48.764;9.172;2022-11-02T18:30:54;6.87;;;5.23;;
757;SDS011;363;48.764;9.172;2022-11-02T18:33:20;10.03;;;6.00;;
757;SDS011;363;48.764;9.172;2022-11-02T18:35:46;12.25;;;6.00;;
757;SDS011;363;48.764;9.172;2022-11-02T18:38:12;8.07;;;5.50;;
757;SDS011;363;48.764;9.172;2022-11-02T18:40:37;11.03;;;7.13;;
757;SDS011;363;48.764;9.172;2022-11-02T18:43:03;11.10;;;6.20;;
757;SDS011;363;48.764;9.172;2022-11-02T18:45:29;12.10;;;6.87;;
757;SDS011;363;48.764;9.172;2022-11-02T18:47:54;9.80;;;6.03;;
757;SDS011;363;48.764;9.172;2022-11-02T18:50:20;8.82;;;5.53;;
757;SDS011;363;48.764;9.172;2022-11-02T18:52:46;11.53;;;5.87;;